Ana Sayfa
METAR-TAF:

METAR-TAF

Havaalanları :

Eskişehir Hava Üssü

Eskişehir, Türkiye

Enlem: 39-47N, Boylam: 030-34E, yükseklik: 785 m

Güncel hava durumu gözlemi

Rapor saat 17:14 UTC de 16 saat ve 13 dakika önce yapıldı.
Rüzgar batı/kuzeybatıdan 5 kt, batı ve kuzey/kuzeybatı arasında değişken
Sıcaklık 9°C
Nem 81%
Basınç 1010 hPa
Görüş mesafesi 10 km veya daha fazla
3500 ft yükseklikte parçalı çok bulutlu
hafif sağanak yağmurlar

METAR: LTBI 271714Z 30005KT 270V330 9999 -SHRA BKN035 09/06 Q1010 NOSIG RMK RWY08 30009KT

Saat: 12:27 (09:27 UTC)

Tahmin

Rapor saat 07:40 UTC de 1 saat ve 47 dakika önce yapıldı.
Ayın 28'si saat 09 UTC'den ayın 28'si saat 18 UTC'ye kadar geçerli Tahmin
Rüzgar batıdan 8 kt
Görüş mesafesi: 7000 m
1200 ft yükseklikte parçalı bulutlu
3500 ft yükseklikte parçalı çok bulutlu
hafif sağanak yağmurlar

TAF: LTBI 280740Z 2809/2818 28008KT 7000 -SHRA SCT012 BKN035

4.000'den fazla havaalanı için hava durumu gözlemleri ve tahminleri (METAR ve TAF raporları).

Kullanılabilir istasyonlar harita üzerinde sarı ve kırmızı noktalarla gösterilir.

İstasyonun adını görmek için fareyi noktanın üzerinde gezdirin.

Sonrasında hava gözlem ve tahminlerini görmek için tıklayın.

Haritayı değiştirmek için: yaklaştırmak için siyah artı işaretli yeşil düğmeye ve uzaklaştırmak için de eksi işaretli düğmeye hızla tıklayın; bitişik haritalar için yeşil okları kullanın.


METAR-TAF: